Time;durP1;ratioP1;P1;durP2;ratioP2;P2;SDS_P1;SDS_P2;PMS_P1;PMS_P2;Temp;Humidity;BMP_temperature;BMP_pressure;BME280_temperature;BME280_humidity;BME280_pressure;Samples;Min_cycle;Max_cycle;Signal;HPM_P1;HPM_P2
2020/12/26 00:01:08;;;;;;;13.03;8.00;;;0.80;99.90;;;;;;5036471;28;20805;-84
2020/12/26 00:03:34;;;;;;;20.47;10.57;;;0.40;99.90;;;;;;5036748;28;20183;-84
2020/12/26 00:05:59;;;;;;;13.07;9.87;;;0.40;99.90;;;;;;5036422;28;20820;-84
2020/12/26 00:08:25;;;;;;;21.40;11.53;;;0.90;99.90;;;;;;5036742;28;20190;-83
2020/12/26 00:10:51;;;;;;;16.20;10.37;;;0.50;99.90;;;;;;5036439;28;20168;-84
2020/12/26 00:13:17;;;;;;;14.10;10.20;;;0.60;99.90;;;;;;5036645;28;20179;-83
2020/12/26 00:15:42;;;;;;;16.00;9.47;;;0.50;99.90;;;;;;5036910;28;20402;-83
2020/12/26 00:18:08;;;;;;;25.93;12.50;;;0.70;99.90;;;;;;5040088;28;20296;-84
2020/12/26 00:20:34;;;;;;;13.60;9.90;;;0.20;99.90;;;;;;5036380;28;20803;-84
2020/12/26 00:23:00;;;;;;;14.20;10.50;;;0.20;99.90;;;;;;5036091;28;20198;-84
2020/12/26 00:25:25;;;;;;;18.30;12.63;;;0.30;99.90;;;;;;5035772;28;20256;-83
2020/12/26 00:27:51;;;;;;;14.47;11.10;;;0.70;99.90;;;;;;5052628;28;20175;-84
2020/12/26 00:30:16;;;;;;;17.60;11.57;;;0.40;99.90;;;;;;5036073;28;20175;-84
2020/12/26 00:32:42;;;;;;;28.43;11.70;;;0.40;99.90;;;;;;5053886;28;20210;-83
2020/12/26 00:35:07;;;;;;;18.83;12.30;;;0.10;99.90;;;;;;5035966;28;20175;-83
2020/12/26 00:37:33;;;;;;;19.63;11.43;;;0.60;99.90;;;;;;5035728;28;20695;-83
2020/12/26 00:39:58;;;;;;;14.90;9.90;;;0.50;99.90;;;;;;5035769;28;20195;-82
2020/12/26 00:42:24;;;;;;;19.17;12.90;;;0.00;99.90;;;;;;5036128;28;20252;-84
2020/12/26 00:44:49;;;;;;;19.40;13.07;;;-0.10;99.90;;;;;;5035888;28;20270;-83
2020/12/26 00:47:18;;;;;;;22.73;14.07;;;0.10;99.90;;;;;;5035881;28;20615;-84
2020/12/26 00:49:44;;;;;;;22.30;13.17;;;0.40;99.90;;;;;;5035712;28;20179;-83
2020/12/26 00:52:09;;;;;;;20.37;13.00;;;0.00;99.90;;;;;;5035642;28;21009;-83
2020/12/26 00:54:35;;;;;;;21.90;13.40;;;-0.10;99.90;;;;;;5035599;28;20661;-84
2020/12/26 00:57:00;;;;;;;16.37;12.07;;;0.00;99.90;;;;;;5035635;28;20212;-84
2020/12/26 00:59:26;;;;;;;19.67;12.77;;;-0.10;99.90;;;;;;5035808;28;20172;-84
2020/12/26 01:01:55;;;;;;;22.53;13.73;;;0.00;99.90;;;;;;5035653;28;20191;-83
2020/12/26 01:04:21;;;;;;;19.40;10.77;;;-0.20;99.90;;;;;;5052138;28;20172;-84
2020/12/26 01:06:56;;;;;;;18.60;13.37;;;-0.20;99.90;;;;;;5035422;28;20425;-83
2020/12/26 01:09:23;;;;;;;19.23;12.60;;;-0.30;99.90;;;;;;5035549;28;20202;-83
2020/12/26 01:11:52;;;;;;;21.60;13.90;;;-0.20;99.90;;;;;;5035730;28;20476;-83
2020/12/26 01:14:18;;;;;;;28.73;12.83;;;-0.20;99.90;;;;;;5053655;28;20464;-83
2020/12/26 01:16:49;;;;;;;20.07;12.43;;;-0.30;99.90;;;;;;5053366;28;20450;-84
2020/12/26 01:19:15;;;;;;;20.37;11.77;;;0.10;99.90;;;;;;5035948;28;20410;-84
2020/12/26 01:21:41;;;;;;;19.43;11.60;;;0.00;99.90;;;;;;5035675;28;20425;-83
2020/12/26 01:24:06;;;;;;;25.00;14.33;;;-0.40;99.90;;;;;;5035466;28;20549;-83
2020/12/26 01:26:32;;;;;;;17.70;11.60;;;0.00;99.90;;;;;;5035910;28;20180;-84
2020/12/26 01:28:57;;;;;;;23.83;13.83;;;0.00;99.90;;;;;;5053313;28;20183;-83
2020/12/26 01:31:23;;;;;;;22.60;11.43;;;-0.30;99.90;;;;;;5035607;28;20221;-83
2020/12/26 01:33:50;;;;;;;25.03;12.90;;;-0.30;99.90;;;;;;5035454;28;20180;-83
2020/12/26 01:36:15;;;;;;;20.50;13.47;;;-0.30;99.90;;;;;;5035267;28;20204;-83
2020/12/26 01:38:41;;;;;;;17.93;10.70;;;-0.10;99.90;;;;;;5035310;28;20438;-83
2020/12/26 01:41:06;;;;;;;17.90;10.30;;;0.40;99.90;;;;;;5035440;28;20203;-83
2020/12/26 01:43:32;;;;;;;21.07;12.30;;;0.00;99.90;;;;;;5035372;28;20245;-83
2020/12/26 01:45:58;;;;;;;10.50;6.07;;;0.50;99.90;;;;;;5035381;28;20180;-84
2020/12/26 01:48:24;;;;;;;22.87;13.70;;;0.50;99.90;;;;;;5035385;28;20190;-83
2020/12/26 01:50:51;;;;;;;24.17;15.17;;;0.10;99.90;;;;;;5035016;28;20262;-83
2020/12/26 01:53:18;;;;;;;26.27;13.60;;;0.20;99.90;;;;;;5035509;28;20422;-83
2020/12/26 01:55:47;;;;;;;28.10;14.60;;;0.20;99.90;;;;;;5055587;28;20422;-83
2020/12/26 01:58:14;;;;;;;20.70;15.20;;;0.20;99.90;;;;;;5056783;28;20528;-83
2020/12/26 02:00:40;;;;;;;29.33;14.97;;;0.30;99.90;;;;;;5039038;28;20422;-83
2020/12/26 02:03:06;;;;;;;23.73;13.77;;;0.30;99.90;;;;;;5039181;28;20929;-83
2020/12/26 02:05:32;;;;;;;19.90;13.83;;;0.60;99.90;;;;;;5038946;28;20476;-84
2020/12/26 02:07:58;;;;;;;25.00;13.43;;;0.10;99.90;;;;;;5057013;28;20176;-83
2020/12/26 02:10:24;;;;;;;24.77;14.17;;;0.30;99.90;;;;;;5039258;28;20926;-83
2020/12/26 02:12:49;;;;;;;30.40;17.60;;;0.40;99.90;;;;;;5039130;28;20423;-84
2020/12/26 02:15:15;;;;;;;25.20;16.70;;;0.50;99.90;;;;;;5038795;28;20171;-84
2020/12/26 02:17:41;;;;;;;23.97;16.00;;;0.50;99.90;;;;;;5038859;28;20211;-84
2020/12/26 02:20:07;;;;;;;25.13;14.50;;;0.90;99.90;;;;;;5038546;28;20172;-83
2020/12/26 02:22:33;;;;;;;17.67;12.60;;;0.40;99.90;;;;;;5038558;28;20430;-83
2020/12/26 02:24:59;;;;;;;26.47;15.00;;;0.60;99.90;;;;;;5038411;28;20458;-83
2020/12/26 02:27:25;;;;;;;19.93;13.40;;;0.50;99.90;;;;;;5038657;28;20236;-83
2020/12/26 02:29:50;;;;;;;31.97;14.00;;;0.50;99.90;;;;;;5038743;28;20178;-84
2020/12/26 02:32:16;;;;;;;21.00;13.83;;;0.70;99.90;;;;;;5038611;28;20594;-83
2020/12/26 02:34:41;;;;;;;23.37;14.60;;;0.90;99.90;;;;;;5038204;28;20266;-83
2020/12/26 02:37:07;;;;;;;21.90;14.53;;;0.90;99.90;;;;;;5038198;28;20215;-83
2020/12/26 02:39:33;;;;;;;23.60;13.50;;;0.50;99.90;;;;;;5056293;28;20172;-84
2020/12/26 02:42:01;;;;;;;24.73;14.80;;;0.80;99.90;;;;;;5055572;28;20539;-83
2020/12/26 02:44:27;;;;;;;23.20;14.40;;;0.30;99.90;;;;;;5038653;28;20172;-84
2020/12/26 02:46:55;;;;;;;24.37;16.27;;;0.40;99.90;;;;;;5056007;28;20514;-83
2020/12/26 02:49:20;;;;;;;26.03;18.33;;;0.60;99.90;;;;;;5037989;28;20172;-83
2020/12/26 02:51:46;;;;;;;22.03;13.97;;;0.10;99.90;;;;;;5038319;28;20423;-84
2020/12/26 02:54:12;;;;;;;21.17;13.70;;;0.30;99.90;;;;;;5055900;28;20187;-83
2020/12/26 02:56:40;;;;;;;25.20;12.87;;;0.20;99.90;;;;;;5037887;28;20215;-84
2020/12/26 02:59:09;;;;;;;19.63;12.73;;;0.30;99.90;;;;;;5037853;28;20176;-83
2020/12/26 03:01:41;;;;;;;22.20;12.70;;;0.20;99.90;;;;;;5037800;28;20450;-83
2020/12/26 03:04:07;;;;;;;19.87;12.20;;;0.20;99.90;;;;;;5055624;28;20513;-84
2020/12/26 03:06:33;;;;;;;16.43;11.93;;;0.20;99.90;;;;;;5036430;28;20504;-83
2020/12/26 03:08:58;;;;;;;20.40;11.80;;;0.60;99.90;;;;;;5037703;28;20184;-83
2020/12/26 03:11:27;;;;;;;16.40;11.40;;;0.10;99.90;;;;;;5055459;28;20574;-83
2020/12/26 03:13:53;;;;;;;24.30;12.47;;;0.10;99.90;;;;;;5037682;28;20262;-84
2020/12/26 03:16:19;;;;;;;18.67;12.90;;;0.10;99.90;;;;;;5037337;28;20561;-83
2020/12/26 03:18:46;;;;;;;18.07;10.53;;;0.50;99.90;;;;;;5037797;28;20270;-83
2020/12/26 03:21:11;;;;;;;19.17;12.00;;;0.40;99.90;;;;;;5037769;28;20527;-83
2020/12/26 03:23:37;;;;;;;17.67;11.03;;;0.10;99.90;;;;;;5037293;28;20442;-83
2020/12/26 03:26:02;;;;;;;26.67;12.87;;;0.20;99.90;;;;;;5037589;28;20180;-84
2020/12/26 03:28:30;;;;;;;19.97;12.17;;;0.10;99.90;;;;;;5037296;28;20266;-83
2020/12/26 03:30:56;;;;;;;21.97;12.60;;;0.50;99.90;;;;;;5036783;28;20176;-83
2020/12/26 03:33:21;;;;;;;20.97;13.07;;;0.00;99.90;;;;;;5037333;28;20488;-84
2020/12/26 03:35:47;;;;;;;20.30;12.70;;;0.20;99.90;;;;;;5037189;28;20208;-84
2020/12/26 03:38:12;;;;;;;18.50;10.13;;;0.00;99.90;;;;;;5037329;28;20215;-83
2020/12/26 03:40:38;;;;;;;22.00;12.40;;;0.40;99.90;;;;;;5037127;28;20212;-83
2020/12/26 03:43:04;;;;;;;25.40;11.50;;;0.10;99.90;;;;;;5054929;28;20578;-84
2020/12/26 03:45:29;;;;;;;23.43;12.70;;;0.30;99.90;;;;;;5037104;28;20182;-83
2020/12/26 03:47:55;;;;;;;22.97;12.87;;;-0.20;99.90;;;;;;5037133;28;20179;-83
2020/12/26 03:50:20;;;;;;;31.13;11.90;;;-0.20;99.90;;;;;;5037037;28;20184;-83
2020/12/26 03:52:46;;;;;;;18.57;11.77;;;-0.20;99.90;;;;;;5037182;28;20180;-83
2020/12/26 03:55:11;;;;;;;18.63;9.93;;;0.10;99.90;;;;;;5036751;28;20678;-83
2020/12/26 03:57:37;;;;;;;24.60;12.37;;;0.30;99.90;;;;;;5036802;28;20730;-83
2020/12/26 04:00:05;;;;;;;18.70;12.90;;;0.30;99.90;;;;;;5054609;28;20176;-79
2020/12/26 04:02:30;;;;;;;18.27;10.23;;;0.10;99.90;;;;;;5036561;28;20187;-81
2020/12/26 04:04:56;;;;;;;21.57;13.50;;;0.20;99.90;;;;;;5036530;28;20423;-81
2020/12/26 04:07:21;;;;;;;17.67;11.33;;;0.30;99.90;;;;;;5036587;28;20184;-83
2020/12/26 04:09:47;;;;;;;30.00;13.77;;;0.10;99.90;;;;;;5036520;28;20536;-83
2020/12/26 04:12:15;;;;;;;21.10;13.43;;;0.10;99.90;;;;;;5036621;28;20191;-83
2020/12/26 04:14:40;;;;;;;23.13;12.87;;;0.10;99.90;;;;;;5036292;28;20560;-83
2020/12/26 04:17:24;;;;;;;24.73;14.17;;;0.30;99.90;;;;;;5036054;28;20516;-83
2020/12/26 04:19:50;;;;;;;18.70;12.57;;;0.10;99.90;;;;;;5036386;28;20186;-83
2020/12/26 04:22:15;;;;;;;22.47;12.73;;;0.30;99.90;;;;;;5036438;28;20430;-83
2020/12/26 04:24:44;;;;;;;21.50;13.43;;;0.60;99.90;;;;;;5036165;28;20592;-84
2020/12/26 04:27:10;;;;;;;26.43;12.30;;;0.10;99.90;;;;;;5036191;28;20591;-83
2020/12/26 04:29:35;;;;;;;24.53;14.77;;;0.50;99.90;;;;;;5036170;28;20426;-83
2020/12/26 04:32:01;;;;;;;27.70;14.10;;;0.60;99.90;;;;;;5054043;28;20414;-83
2020/12/26 04:34:27;;;;;;;28.60;14.90;;;0.60;99.90;;;;;;5036308;28;20180;-83
2020/12/26 04:36:52;;;;;;;23.43;14.20;;;0.30;99.90;;;;;;5035893;28;20229;-84
2020/12/26 04:39:18;;;;;;;22.43;14.13;;;0.30;99.90;;;;;;5036065;28;20180;-84
2020/12/26 04:41:44;;;;;;;24.77;14.50;;;0.30;99.90;;;;;;5036105;28;20323;-84
2020/12/26 04:44:11;;;;;;;28.70;15.70;;;0.60;99.90;;;;;;5035979;28;20710;-84
2020/12/26 04:46:39;;;;;;;22.03;13.07;;;0.30;99.90;;;;;;5036108;28;20505;-83
2020/12/26 04:49:10;;;;;;;19.53;13.93;;;0.30;99.90;;;;;;5035832;28;20555;-83
2020/12/26 04:51:37;;;;;;;24.63;14.77;;;0.40;99.90;;;;;;5035730;28;20513;-83
2020/12/26 04:54:26;;;;;;;28.20;15.73;;;0.50;99.90;;;;;;5036121;28;20423;-83
2020/12/26 04:57:00;;;;;;;18.80;11.70;;;0.40;99.90;;;;;;5035873;28;20470;-84
2020/12/26 04:59:25;;;;;;;24.13;13.47;;;0.50;99.90;;;;;;5035882;28;20411;-83
2020/12/26 05:01:51;;;;;;;29.97;15.93;;;0.50;99.90;;;;;;5053672;28;20425;-83
2020/12/26 05:04:18;;;;;;;31.60;12.37;;;0.60;99.90;;;;;;5037474;28;20172;-83
2020/12/26 05:06:51;;;;;;;20.60;13.30;;;0.60;99.90;;;;;;5036769;28;20821;-83
2020/12/26 05:09:18;;;;;;;23.67;13.23;;;1.00;99.90;;;;;;5036369;28;20418;-82
2020/12/26 05:11:57;;;;;;;24.50;13.03;;;0.70;99.90;;;;;;5036082;28;20430;-84
2020/12/26 05:14:25;;;;;;;21.73;10.90;;;0.90;99.90;;;;;;5036156;28;20433;-84
2020/12/26 05:16:51;;;;;;;15.33;10.37;;;0.70;99.90;;;;;;5035565;28;20465;-84
2020/12/26 05:19:16;;;;;;;16.83;12.00;;;1.10;99.90;;;;;;5035818;28;20816;-84
2020/12/26 05:21:45;;;;;;;20.93;12.83;;;1.30;99.90;;;;;;5034810;28;20513;-83
2020/12/26 05:24:12;;;;;;;18.77;13.27;;;0.70;99.90;;;;;;5035631;28;20338;-83
2020/12/26 05:27:00;;;;;;;18.70;11.50;;;1.10;99.90;;;;;;5035621;28;20427;-83
2020/12/26 05:29:26;;;;;;;17.63;11.30;;;0.80;99.90;;;;;;5037477;28;20879;-83
2020/12/26 05:32:03;;;;;;;22.07;12.90;;;0.80;99.90;;;;;;5039793;28;20797;-83
2020/12/26 05:34:40;;;;;;;18.20;12.20;;;1.10;99.90;;;;;;5040270;28;20426;-84
2020/12/26 05:37:07;;;;;;;25.10;13.37;;;1.20;99.90;;;;;;5039459;28;21053;-84
2020/12/26 05:39:35;;;;;;;13.83;9.37;;;0.60;99.90;;;;;;5039442;28;20434;-84
2020/12/26 05:42:01;;;;;;;18.07;13.50;;;0.60;99.90;;;;;;5039783;28;20497;-84
2020/12/26 05:44:29;;;;;;;15.17;11.53;;;1.00;99.90;;;;;;5039317;28;20560;-84
2020/12/26 05:47:01;;;;;;;22.77;13.50;;;1.20;99.90;;;;;;5057058;28;20406;-83
2020/12/26 05:49:34;;;;;;;20.63;14.30;;;0.70;99.90;;;;;;5039126;28;20430;-83
2020/12/26 05:52:13;;;;;;;25.87;13.40;;;1.10;99.90;;;;;;5039046;28;20422;-83
2020/12/26 05:54:49;;;;;;;19.60;12.57;;;1.10;99.90;;;;;;5039107;28;20465;-84
2020/12/26 05:57:16;;;;;;;18.37;11.47;;;1.00;99.90;;;;;;5039008;28;20562;-83
2020/12/26 06:00:02;;;;;;;22.70;13.20;;;1.10;99.90;;;;;;5038958;28;20411;-83
2020/12/26 06:02:29;;;;;;;16.10;9.90;;;1.00;99.90;;;;;;5039020;28;20422;-83
2020/12/26 06:05:03;;;;;;;19.03;12.83;;;0.60;99.90;;;;;;5038923;28;20410;-83
2020/12/26 06:07:34;;;;;;;16.90;10.90;;;1.00;99.90;;;;;;5038863;28;20925;-83
2020/12/26 06:10:01;;;;;;;18.37;10.47;;;1.00;99.90;;;;;;5038974;28;20423;-84
2020/12/26 06:12:28;;;;;;;16.67;10.50;;;1.00;99.90;;;;;;5038994;28;20506;-83
2020/12/26 06:14:55;;;;;;;18.93;9.33;;;0.70;99.90;;;;;;5038765;28;20841;-83
2020/12/26 06:17:23;;;;;;;9.83;6.23;;;0.60;99.90;;;;;;5038743;28;20470;-83
2020/12/26 06:19:57;;;;;;;20.80;11.70;;;0.40;99.90;;;;;;5038648;28;20407;-84
2020/12/26 06:22:23;;;;;;;26.93;11.77;;;0.80;99.90;;;;;;5038765;28;20835;-83
2020/12/26 06:24:49;;;;;;;15.47;6.40;;;0.50;99.90;;;;;;5038478;28;20470;-83
2020/12/26 06:27:15;;;;;;;21.10;11.33;;;0.90;99.90;;;;;;5038571;28;20422;-84
2020/12/26 06:29:44;;;;;;;14.33;9.10;;;0.50;99.90;;;;;;5038568;28;20410;-83
2020/12/26 06:32:11;;;;;;;17.03;11.57;;;0.40;99.90;;;;;;5026089;28;20794;-83
2020/12/26 06:34:40;;;;;;;12.90;9.17;;;0.30;99.90;;;;;;5031896;28;20426;-83
2020/12/26 06:37:10;;;;;;;11.87;9.57;;;0.20;99.90;;;;;;5054971;28;20462;-83
2020/12/26 06:39:37;;;;;;;5.47;4.53;;;0.70;99.90;;;;;;5054879;28;20430;-83
2020/12/26 06:42:23;;;;;;;13.97;7.77;;;0.60;99.90;;;;;;5037377;28;20743;-83
2020/12/26 06:44:49;;;;;;;11.40;9.20;;;0.20;99.90;;;;;;5035911;28;20427;-83
2020/12/26 06:47:37;;;;;;;21.83;11.40;;;0.30;99.90;;;;;;5052871;28;20421;-83
2020/12/26 06:50:19;;;;;;;21.77;14.57;;;0.60;99.90;;;;;;5036763;28;20431;-83
2020/12/26 06:52:44;;;;;;;13.20;10.10;;;0.60;99.90;;;;;;5036767;28;20438;-83
2020/12/26 06:55:39;;;;;;;21.17;14.73;;;0.10;99.90;;;;;;5037200;28;20407;-83
2020/12/26 06:58:28;;;;;;;21.40;14.00;;;0.60;99.90;;;;;;5037008;28;20239;-83
2020/12/26 07:00:54;;;;;;;18.60;11.80;;;0.80;99.90;;;;;;5036373;28;20427;-83
2020/12/26 07:03:28;;;;;;;16.43;11.60;;;0.40;99.90;;;;;;5036854;28;20431;-83
2020/12/26 07:05:54;;;;;;;19.20;10.70;;;0.70;99.90;;;;;;5036738;28;20302;-84
2020/12/26 07:08:50;;;;;;;15.40;9.70;;;0.40;99.90;;;;;;5036674;28;20457;-84
2020/12/26 07:11:25;;;;;;;20.33;10.20;;;0.80;99.90;;;;;;5036440;28;20226;-83
2020/12/26 07:13:52;;;;;;;20.70;11.50;;;0.80;99.90;;;;;;5029668;28;20940;-83
2020/12/26 07:16:40;;;;;;;19.37;10.03;;;0.90;99.90;;;;;;5016232;28;20418;-82
2020/12/26 07:19:38;;;;;;;8.87;4.50;;;0.90;99.90;;;;;;5035766;28;20469;-83
2020/12/26 07:22:13;;;;;;;8.37;6.10;;;1.00;99.90;;;;;;5024655;28;20789;-82
2020/12/26 07:24:52;;;;;;;12.43;10.00;;;0.70;99.90;;;;;;5035744;28;20828;-82
2020/12/26 07:27:22;;;;;;;16.27;10.80;;;0.70;99.90;;;;;;5036051;28;20517;-83
2020/12/26 07:29:52;;;;;;;14.87;10.07;;;0.50;99.90;;;;;;5039713;28;20514;-82
2020/12/26 07:32:36;;;;;;;18.13;8.80;;;0.90;99.90;;;;;;5036485;28;20560;-83
2020/12/26 07:35:22;;;;;;;17.80;11.47;;;0.90;99.90;;;;;;5036324;28;20414;-82
2020/12/26 07:37:59;;;;;;;16.10;10.70;;;1.00;99.90;;;;;;5036370;28;20528;-82
2020/12/26 07:40:32;;;;;;;15.53;10.30;;;1.10;99.90;;;;;;5037556;28;20457;-83
2020/12/26 07:43:01;;;;;;;17.97;9.70;;;1.10;99.90;;;;;;5036291;28;20938;-82
2020/12/26 07:45:28;;;;;;;14.00;9.90;;;1.00;99.90;;;;;;5035867;28;20410;-82
2020/12/26 07:47:56;;;;;;;16.40;9.47;;;0.80;99.90;;;;;;5035813;28;20449;-83
2020/12/26 07:50:24;;;;;;;14.20;9.23;;;0.90;99.90;;;;;;5035874;28;20419;-82
2020/12/26 07:52:55;;;;;;;12.77;8.33;;;1.30;99.90;;;;;;5035014;28;20430;-82
2020/12/26 07:55:21;;;;;;;11.80;9.00;;;1.40;99.90;;;;;;5035587;28;20414;-83
2020/12/26 07:57:47;;;;;;;12.20;8.07;;;1.40;99.90;;;;;;5035545;28;20833;-82
2020/12/26 08:00:27;;;;;;;15.47;8.70;;;1.50;99.90;;;;;;5035709;28;20419;-83
2020/12/26 08:02:54;;;;;;;11.30;8.20;;;1.20;99.90;;;;;;5035647;28;20179;-83
2020/12/26 08:05:28;;;;;;;15.57;10.07;;;1.20;99.90;;;;;;5035252;28;20418;-83
2020/12/26 08:07:54;;;;;;;10.57;8.00;;;1.20;99.90;;;;;;5035379;28;20422;-83
2020/12/26 08:10:20;;;;;;;14.97;8.93;;;1.60;99.90;;;;;;5035491;28;20419;-83
2020/12/26 08:12:50;;;;;;;11.50;8.67;;;1.60;99.90;;;;;;5052777;28;20422;-82
2020/12/26 08:15:20;;;;;;;10.50;8.07;;;1.60;99.90;;;;;;5036384;28;20422;-82
2020/12/26 08:17:47;;;;;;;13.30;8.67;;;1.30;99.90;;;;;;5036169;28;20635;-83
2020/12/26 08:20:15;;;;;;;10.97;7.47;;;1.70;99.90;;;;;;5036459;28;20474;-83
2020/12/26 08:22:44;;;;;;;11.40;9.00;;;1.50;99.90;;;;;;5036143;28;20914;-83
2020/12/26 08:25:10;;;;;;;14.47;9.17;;;1.60;99.90;;;;;;5053936;28;20465;-83
2020/12/26 08:27:40;;;;;;;12.93;8.60;;;1.40;99.90;;;;;;5036181;28;20944;-81
2020/12/26 08:30:10;;;;;;;10.07;7.77;;;1.60;99.90;;;;;;5036028;28;20422;-83
2020/12/26 08:33:07;;;;;;;13.17;8.70;;;1.80;99.90;;;;;;5036204;28;20422;-83
2020/12/26 08:35:33;;;;;;;10.40;8.60;;;2.10;99.90;;;;;;5035970;28;20472;-83
2020/12/26 08:38:21;;;;;;;10.60;7.90;;;1.60;99.90;;;;;;5035818;28;21070;-83
2020/12/26 08:40:55;;;;;;;10.63;8.50;;;1.60;99.90;;;;;;5035935;28;20778;-84
2020/12/26 08:43:21;;;;;;;9.07;7.20;;;1.70;99.90;;;;;;5036331;28;20458;-83
2020/12/26 08:45:47;;;;;;;10.43;8.20;;;1.70;99.90;;;;;;5036014;28;20407;-82
2020/12/26 08:48:21;;;;;;;11.80;7.90;;;2.20;99.90;;;;;;5035995;28;20432;-83
2020/12/26 08:50:54;;;;;;;10.20;8.10;;;2.20;99.90;;;;;;5036339;28;20240;-84
2020/12/26 08:53:22;;;;;;;14.17;8.57;;;2.10;99.90;;;;;;5036587;28;20513;-83
2020/12/26 08:55:50;;;;;;;9.37;6.50;;;1.90;99.90;;;;;;5036119;28;20422;-82
2020/12/26 08:58:32;;;;;;;14.57;7.90;;;2.10;99.90;;;;;;5035720;28;20469;-82
2020/12/26 09:01:03;;;;;;;12.70;9.20;;;2.30;99.90;;;;;;5035965;28;20430;-84
2020/12/26 09:03:33;;;;;;;11.30;8.97;;;1.90;99.90;;;;;;5035852;28;20445;-84
2020/12/26 09:06:02;;;;;;;10.77;8.37;;;2.30;99.90;;;;;;5036103;28;20955;-84
2020/12/26 09:08:33;;;;;;;12.90;9.00;;;1.90;99.90;;;;;;5035406;28;20426;-84
2020/12/26 09:11:24;;;;;;;9.20;7.77;;;2.30;99.90;;;;;;5035735;28;20418;-84
2020/12/26 09:13:50;;;;;;;13.10;9.03;;;2.40;99.90;;;;;;5030438;28;20415;-84
2020/12/26 09:16:16;;;;;;;11.20;7.43;;;1.80;99.90;;;;;;5035720;28;20533;-84
2020/12/26 09:18:48;;;;;;;12.80;8.70;;;1.90;99.90;;;;;;5035364;28;20180;-84
2020/12/26 09:21:27;;;;;;;11.03;7.80;;;2.10;99.90;;;;;;5035618;28;20425;-84
2020/12/26 09:23:54;;;;;;;10.23;7.33;;;2.10;99.90;;;;;;5035527;28;20497;-84
2020/12/26 09:26:23;;;;;;;10.60;8.97;;;2.10;99.90;;;;;;5035422;28;20999;-84
2020/12/26 09:28:57;;;;;;;12.67;9.03;;;1.70;99.90;;;;;;5035517;28;20423;-84
2020/12/26 09:31:25;;;;;;;11.27;8.77;;;2.00;99.90;;;;;;5035233;28;20429;-84
2020/12/26 09:33:52;;;;;;;11.17;7.20;;;1.50;99.90;;;;;;5035527;28;20422;-83
2020/12/26 09:36:22;;;;;;;9.63;5.97;;;1.70;99.90;;;;;;5035321;28;20434;-82
2020/12/26 09:38:49;;;;;;;9.60;7.80;;;2.00;99.90;;;;;;5053248;28;20458;-82
2020/12/26 09:41:16;;;;;;;10.10;8.00;;;2.20;99.90;;;;;;5039501;28;20426;-85
2020/12/26 09:43:43;;;;;;;8.30;5.90;;;2.30;99.90;;;;;;5035501;28;20926;-83
2020/12/26 09:46:09;;;;;;;13.17;7.90;;;2.20;99.90;;;;;;5035328;28;20402;-83
2020/12/26 09:48:34;;;;;;;9.60;7.30;;;2.30;99.90;;;;;;5035310;28;20968;-83
2020/12/26 09:51:00;;;;;;;7.90;6.70;;;2.20;99.90;;;;;;5036670;28;20198;-85
2020/12/26 09:53:27;;;;;;;9.40;7.53;;;2.50;99.90;;;;;;5037773;28;20176;-82
2020/12/26 09:55:55;;;;;;;14.87;7.67;;;2.10;99.90;;;;;;5053582;28;20509;-82
2020/12/26 09:58:21;;;;;;;11.80;8.27;;;2.30;99.90;;;;;;5036386;28;20470;-83
2020/12/26 10:00:47;;;;;;;11.47;8.67;;;2.70;99.90;;;;;;5053937;28;20437;-83
2020/12/26 10:03:12;;;;;;;15.60;9.97;;;2.70;99.90;;;;;;5035302;28;20205;-83
2020/12/26 10:05:38;;;;;;;15.50;8.03;;;2.80;99.90;;;;;;5035085;28;20176;-84
2020/12/26 10:08:03;;;;;;;9.93;7.50;;;2.90;99.90;;;;;;5035157;28;20263;-83
2020/12/26 10:10:29;;;;;;;10.67;8.40;;;2.80;99.90;;;;;;5034939;28;20582;-83
2020/12/26 10:12:55;;;;;;;8.33;7.53;;;2.70;99.90;;;;;;5035928;28;20721;-82
2020/12/26 10:15:20;;;;;;;16.00;9.73;;;2.90;99.90;;;;;;5036531;28;20540;-83
2020/12/26 10:17:46;;;;;;;12.73;9.93;;;2.90;99.90;;;;;;5039009;28;20219;-83
2020/12/26 10:20:11;;;;;;;10.03;8.00;;;2.90;99.90;;;;;;5039703;28;20168;-83
2020/12/26 10:22:37;;;;;;;8.10;7.30;;;3.20;99.90;;;;;;5039743;28;20187;-84
2020/12/26 10:25:03;;;;;;;8.67;7.80;;;3.30;99.90;;;;;;5038418;28;20267;-83
2020/12/26 10:27:28;;;;;;;8.63;7.23;;;3.00;99.90;;;;;;5038711;28;20194;-83
2020/12/26 10:29:54;;;;;;;8.43;7.57;;;3.00;99.90;;;;;;5037928;28;20203;-82
2020/12/26 10:32:20;;;;;;;8.00;6.80;;;3.30;99.90;;;;;;5038197;28;20211;-82
2020/12/26 10:34:45;;;;;;;8.30;6.97;;;3.30;99.90;;;;;;5038052;28;20236;-82
2020/12/26 10:37:15;;;;;;;7.60;6.00;;;3.10;99.90;;;;;;5037933;28;20618;-81
2020/12/26 10:39:41;;;;;;;10.70;7.20;;;3.50;99.90;;;;;;5038106;28;20573;-83
2020/12/26 10:42:07;;;;;;;8.97;7.00;;;3.60;99.90;;;;;;5037894;28;20426;-82
2020/12/26 10:44:32;;;;;;;9.10;6.50;;;3.70;99.90;;;;;;5039398;28;20270;-83
2020/12/26 10:46:58;;;;;;;6.83;6.03;;;3.70;99.90;;;;;;5038105;28;20627;-83
2020/12/26 10:49:23;;;;;;;9.53;8.10;;;3.70;99.90;;;;;;5037557;28;20582;-83
2020/12/26 10:51:49;;;;;;;8.43;6.33;;;4.20;99.90;;;;;;5056158;28;20179;-83
2020/12/26 10:54:15;;;;;;;8.93;6.70;;;4.20;99.90;;;;;;5037898;28;20176;-82
2020/12/26 10:56:49;;;;;;;5.53;5.03;;;4.30;99.90;;;;;;5054285;28;20204;-82
2020/12/26 10:59:15;;;;;;;6.23;5.57;;;4.60;99.90;;;;;;5037637;28;20233;-82
2020/12/26 11:01:41;;;;;;;6.33;5.07;;;4.60;99.90;;;;;;5037437;28;20422;-82
2020/12/26 11:04:09;;;;;;;5.07;4.57;;;4.20;99.90;;;;;;5056265;28;20194;-82
2020/12/26 11:06:35;;;;;;;5.50;5.00;;;4.30;99.90;;;;;;5037751;28;20762;-83
2020/12/26 11:09:00;;;;;;;11.47;7.50;;;4.30;99.90;;;;;;5037722;28;20521;-83
2020/12/26 11:11:26;;;;;;;11.17;6.90;;;4.50;99.90;;;;;;5037358;28;20176;-83
2020/12/26 11:13:51;;;;;;;28.90;15.60;;;4.60;99.90;;;;;;5037303;28;20176;-83
2020/12/26 11:16:17;;;;;;;30.97;17.57;;;4.60;99.90;;;;;;5037508;28;20654;-83
2020/12/26 11:18:44;;;;;;;27.07;16.97;;;4.70;99.90;;;;;;5037600;28;20215;-83
2020/12/26 11:21:17;;;;;;;12.20;7.43;;;4.90;99.90;;;;;;5037583;28;20461;-83
2020/12/26 11:23:43;;;;;;;14.83;10.77;;;5.00;99.90;;;;;;5037176;28;20470;-83
2020/12/26 11:26:14;;;;;;;10.33;6.93;;;4.80;99.90;;;;;;5036732;28;20403;-83
2020/12/26 11:28:42;;;;;;;7.13;5.60;;;4.80;99.90;;;;;;5037501;28;20564;-83
2020/12/26 11:31:08;;;;;;;11.40;7.70;;;4.80;99.90;;;;;;5055515;28;20433;-84
2020/12/26 11:33:34;;;;;;;11.57;7.80;;;4.70;99.90;;;;;;5036560;28;20410;-80
2020/12/26 11:35:59;;;;;;;6.87;6.27;;;4.20;99.90;;;;;;5036823;28;20582;-84
2020/12/26 11:38:25;;;;;;;9.30;8.40;;;4.70;99.90;;;;;;5036415;28;20212;-83
2020/12/26 11:40:50;;;;;;;10.80;6.57;;;4.80;99.90;;;;;;5053850;28;20187;-84
2020/12/26 11:43:16;;;;;;;6.87;6.17;;;4.80;99.90;;;;;;5036811;28;20184;-83
2020/12/26 11:45:42;;;;;;;6.47;5.87;;;4.80;99.90;;;;;;5036760;28;20210;-82
2020/12/26 11:48:07;;;;;;;5.67;4.37;;;5.10;99.90;;;;;;5054477;28;20512;-83
2020/12/26 11:50:33;;;;;;;4.40;4.10;;;5.00;99.90;;;;;;5036399;28;20176;-82
2020/12/26 11:52:58;;;;;;;6.13;4.63;;;4.70;99.90;;;;;;5036588;28;20179;-84
2020/12/26 11:55:24;;;;;;;4.50;4.10;;;4.50;99.90;;;;;;5036612;28;20508;-84
2020/12/26 11:57:50;;;;;;;6.00;5.20;;;4.80;99.90;;;;;;5036439;28;20274;-82
2020/12/26 12:00:15;;;;;;;5.57;4.27;;;4.50;99.90;;;;;;5036451;28;20654;-83
2020/12/26 12:02:41;;;;;;;5.73;4.97;;;4.30;99.90;;;;;;5036513;28;20646;-82
2020/12/26 12:05:07;;;;;;;11.10;6.03;;;4.00;99.90;;;;;;5053738;28;20184;-82
2020/12/26 12:07:32;;;;;;;9.97;5.33;;;4.00;99.90;;;;;;5039085;28;20274;-81
2020/12/26 12:09:58;;;;;;;6.63;5.00;;;4.10;99.90;;;;;;5042098;28;20194;-82
2020/12/26 12:12:26;;;;;;;7.73;5.40;;;4.20;99.90;;;;;;5037257;28;20187;-81
2020/12/26 12:14:52;;;;;;;4.90;4.50;;;4.20;99.90;;;;;;5036543;28;20194;-82
2020/12/26 12:17:18;;;;;;;5.60;5.10;;;4.10;99.90;;;;;;5037996;28;20469;-81
2020/12/26 12:19:44;;;;;;;4.20;3.23;;;3.60;99.90;;;;;;5054209;28;20493;-82
2020/12/26 12:22:12;;;;;;;7.83;4.47;;;3.90;99.90;;;;;;5036583;28;20219;-82
2020/12/26 12:24:38;;;;;;;7.53;3.93;;;3.80;99.90;;;;;;5033710;28;20264;-82
2020/12/26 12:27:03;;;;;;;5.33;3.90;;;3.70;99.90;;;;;;5033887;28;20423;-82
2020/12/26 12:29:29;;;;;;;9.47;5.97;;;4.30;99.90;;;;;;5032643;28;20180;-82
2020/12/26 12:31:54;;;;;;;4.73;4.17;;;4.50;99.90;;;;;;5034162;28;20208;-82
2020/12/26 12:34:20;;;;;;;5.53;4.90;;;4.50;99.90;;;;;;5032814;28;20636;-81
2020/12/26 12:36:47;;;;;;;10.50;4.00;;;4.60;99.90;;;;;;5032442;28;20211;-81
2020/12/26 12:39:13;;;;;;;4.90;3.57;;;4.70;99.90;;;;;;5033576;28;20180;-82
2020/12/26 12:41:38;;;;;;;3.90;3.50;;;4.80;99.90;;;;;;5032640;28;20841;-84
2020/12/26 12:44:05;;;;;;;3.63;2.77;;;4.70;99.90;;;;;;5032581;28;20177;-82
2020/12/26 12:46:30;;;;;;;4.17;3.27;;;4.30;99.90;;;;;;5032513;28;20263;-83
2020/12/26 12:48:56;;;;;;;4.57;3.23;;;4.00;99.90;;;;;;5032153;28;20515;-82